createdAt,value
2023-02-12T02:21:45.240Z,36.98
2023-02-12T02:22:45.209Z,36.98
2023-02-12T02:23:45.239Z,36.97
2023-02-12T02:24:45.276Z,37.01
2023-02-12T02:25:45.299Z,36.99
2023-02-12T02:26:45.328Z,36.98
2023-02-12T02:27:45.347Z,37.01
2023-02-12T02:28:45.381Z,36.93
2023-02-12T02:29:45.406Z,36.97
2023-02-12T02:30:45.709Z,36.99
2023-02-12T02:31:45.566Z,36.96
2023-02-12T02:32:45.484Z,37.03
2023-02-12T02:33:45.508Z,36.98
2023-02-12T02:34:45.534Z,36.97
2023-02-12T02:35:45.557Z,36.98
2023-02-12T02:36:59.744Z,36.98
2023-02-12T02:37:46.575Z,36.96
2023-02-12T02:38:45.570Z,36.96
2023-02-12T02:39:45.549Z,36.97
2023-02-12T02:40:45.542Z,36.93
2023-02-12T02:41:45.583Z,37.04
2023-02-12T02:42:45.522Z,37.01
2023-02-12T02:43:45.516Z,36.98
2023-02-12T02:44:45.835Z,36.98
2023-02-12T02:45:45.472Z,37.01
2023-02-12T02:46:45.476Z,36.99
2023-02-12T02:47:45.442Z,36.97
2023-02-12T02:48:45.437Z,37.02
2023-02-12T02:49:45.426Z,36.95
2023-02-12T02:50:45.400Z,36.93
2023-02-12T02:51:45.412Z,37.03
2023-02-12T02:52:46.324Z,36.96
2023-02-12T02:53:45.525Z,36.98
2023-02-12T02:54:45.487Z,36.94
2023-02-12T02:55:45.507Z,36.94
2023-02-12T02:56:45.546Z,36.99
2023-02-12T02:57:45.581Z,37.01
2023-02-12T02:58:45.617Z,36.98
2023-02-12T02:59:45.654Z,36.96
2023-02-12T03:00:46.347Z,36.96
2023-02-12T03:01:45.717Z,36.97
2023-02-12T03:02:45.785Z,36.93
2023-02-12T03:03:45.781Z,36.94
2023-02-12T03:04:45.820Z,36.93
2023-02-12T03:05:45.873Z,37.01
2023-02-12T03:06:45.906Z,36.90
2023-02-12T03:07:45.922Z,36.97
2023-02-12T03:08:45.965Z,36.96
2023-02-12T03:09:45.990Z,36.99
2023-02-12T03:10:46.017Z,36.93
2023-02-12T03:11:46.044Z,36.99
2023-02-12T03:12:46.068Z,36.97
2023-02-12T03:13:46.098Z,37.01
2023-02-12T03:14:46.340Z,37.04
2023-02-12T03:15:46.191Z,36.95
2023-02-12T03:16:46.229Z,36.99
2023-02-12T03:17:46.222Z,37.04
2023-02-12T03:18:46.255Z,37.01
2023-02-12T03:19:46.299Z,37.03
2023-02-12T03:20:46.332Z,37.03
2023-02-12T03:21:46.387Z,36.99
2023-02-12T03:22:46.397Z,36.98
2023-02-12T03:23:46.431Z,36.95
2023-02-12T03:24:46.472Z,36.98
2023-02-12T03:25:46.508Z,36.99
2023-02-12T03:26:46.549Z,37.01
2023-02-12T03:27:46.581Z,37.01
2023-02-12T03:28:46.613Z,36.98
2023-02-12T03:29:46.847Z,36.95
2023-02-12T03:30:46.713Z,36.93
2023-02-12T03:31:46.798Z,36.93
2023-02-12T03:32:46.811Z,36.97
2023-02-12T03:33:46.785Z,37.01
2023-02-12T03:34:46.814Z,36.97
2023-02-12T03:35:46.857Z,36.97
2023-02-12T03:36:46.892Z,36.94
2023-02-12T03:37:46.922Z,36.96
2023-02-12T03:38:46.972Z,36.97
2023-02-12T03:39:46.968Z,36.93
2023-02-12T03:40:47.003Z,36.92
2023-02-12T03:41:47.035Z,36.97
2023-02-12T03:42:47.871Z,36.98
2023-02-12T03:43:47.192Z,36.96
2023-02-12T03:44:47.153Z,36.99
2023-02-12T03:55:47.555Z,37.01
2023-02-12T03:56:47.581Z,36.99
2023-02-12T03:57:47.606Z,37.01
2023-02-12T03:58:47.633Z,36.95
2023-02-12T03:59:47.675Z,36.95
2023-02-12T04:00:47.775Z,36.98
2023-02-12T04:01:48.550Z,36.99
2023-02-12T04:02:47.761Z,36.98
2023-02-12T04:03:47.803Z,37.03
2023-02-12T04:04:47.833Z,36.96
2023-02-12T04:05:47.884Z,37.00
2023-02-12T04:06:47.909Z,36.99
2023-02-12T04:07:47.943Z,37.04
2023-02-12T04:08:47.987Z,36.98
2023-02-12T04:09:48.020Z,37.05
2023-02-12T04:10:48.067Z,36.95
2023-02-12T04:11:48.910Z,37.00
2023-02-12T04:12:48.131Z,37.00
2023-02-12T04:13:48.170Z,37.01
2023-02-12T04:14:48.261Z,36.98
2023-02-12T04:15:48.229Z,36.94
2023-02-12T04:16:48.396Z,36.93
2023-02-12T04:17:48.280Z,36.97
2023-02-12T04:18:48.318Z,36.98
2023-02-12T04:19:48.348Z,37.01
2023-02-12T04:20:48.397Z,36.99
2023-02-12T04:21:48.425Z,37.04
2023-02-12T04:22:48.448Z,37.04
2023-02-12T04:23:48.494Z,37.01
2023-02-12T04:24:48.510Z,37.07
2023-02-12T04:25:48.541Z,37.05
2023-02-12T04:26:48.584Z,37.00
2023-02-12T04:27:48.606Z,37.03
2023-02-12T04:28:48.636Z,36.99
2023-02-12T04:29:48.723Z,37.01
2023-02-12T04:30:48.763Z,37.01
2023-02-12T04:31:48.918Z,37.00
2023-02-12T04:32:48.768Z,37.05
2023-02-12T04:33:48.796Z,36.99
2023-02-12T04:34:48.824Z,37.00
2023-02-12T04:35:48.864Z,36.98
2023-02-12T04:36:48.887Z,36.99
2023-02-12T04:37:48.933Z,36.98
2023-02-12T04:38:48.950Z,37.00
2023-02-12T04:39:48.986Z,36.99
2023-02-12T04:40:49.021Z,37.01
2023-02-12T04:41:49.061Z,37.00
2023-02-12T04:42:49.093Z,36.98
2023-02-12T04:43:49.143Z,37.04
2023-02-12T04:44:49.215Z,36.98
2023-02-12T04:45:49.241Z,37.00
2023-02-12T04:46:49.858Z,36.96
2023-02-12T04:47:49.274Z,37.00
2023-02-12T04:48:49.315Z,36.99
2023-02-12T04:49:49.351Z,37.03
2023-02-12T04:50:49.379Z,37.00
2023-02-12T04:51:49.420Z,36.92
2023-02-12T04:52:49.484Z,36.99
2023-02-12T04:53:49.482Z,36.96
2023-02-12T04:54:49.550Z,37.01
2023-02-12T04:55:49.535Z,36.92
2023-02-12T04:56:49.578Z,36.95
2023-02-12T04:57:49.614Z,37.01
2023-02-12T04:58:49.638Z,36.94
2023-02-12T04:59:49.756Z,36.99
2023-02-12T05:00:49.718Z,36.94
2023-02-12T05:01:49.822Z,36.94
2023-02-12T05:02:49.803Z,37.00
2023-02-12T05:03:49.831Z,37.01
2023-02-12T05:04:49.957Z,36.97
2023-02-12T05:05:49.915Z,37.00
2023-02-12T05:06:49.974Z,36.99
2023-02-12T06:36:53.538Z,37.03
2023-02-12T06:46:53.998Z,36.96
2023-02-12T06:47:54.006Z,37.09
2023-02-12T06:48:54.060Z,37.06
2023-02-12T06:49:54.134Z,36.98
2023-02-12T06:50:54.143Z,36.98
2023-02-12T06:51:54.405Z,37.00
2023-02-12T06:52:54.232Z,37.02
2023-02-12T06:53:54.280Z,36.98
2023-02-12T06:54:54.316Z,37.01
2023-02-12T06:55:54.620Z,36.97
2023-02-12T06:56:54.402Z,36.96
2023-02-12T06:57:54.432Z,36.97
2023-02-12T06:58:54.539Z,36.96
2023-02-12T06:59:54.519Z,36.95
2023-02-12T07:00:54.602Z,36.98
2023-02-12T07:01:54.595Z,36.95
2023-02-12T07:02:54.637Z,37.00
2023-02-12T07:03:54.751Z,37.00
2023-02-12T07:04:54.714Z,37.00
2023-02-12T07:05:55.098Z,36.97
2023-02-12T07:06:54.809Z,36.96
2023-02-12T07:07:54.852Z,36.97
2023-02-12T07:08:54.896Z,36.93
2023-02-12T07:09:55.893Z,36.97
2023-02-12T07:10:55.025Z,36.93
2023-02-12T07:11:54.996Z,36.96
2023-02-12T07:12:55.043Z,36.95
2023-02-12T07:13:55.090Z,36.93
2023-02-12T07:14:55.129Z,36.88
2023-02-12T07:15:55.662Z,36.96
2023-02-12T07:16:57.179Z,36.96
2023-02-12T07:17:55.247Z,36.96
2023-02-12T07:18:55.294Z,36.98
2023-02-12T07:19:55.325Z,37.00
2023-02-12T07:20:55.371Z,37.00
2023-02-12T07:21:55.408Z,37.01
2023-02-12T07:22:55.445Z,36.96
2023-02-12T07:23:55.472Z,36.90
2023-02-12T07:24:55.527Z,36.96
2023-02-12T07:25:55.792Z,36.95
2023-02-12T07:26:55.608Z,37.01
2023-02-12T07:27:55.645Z,36.95
2023-02-12T07:28:55.684Z,36.93
2023-02-12T07:29:55.704Z,36.96
2023-02-12T07:30:55.817Z,36.98
2023-02-12T07:31:55.823Z,36.91
2023-02-12T07:32:55.823Z,37.01
2023-02-12T07:33:55.887Z,36.97
2023-02-12T07:34:55.921Z,36.96
2023-02-12T07:35:56.258Z,36.98
2023-02-12T07:36:55.988Z,36.99
2023-02-12T07:37:56.024Z,36.98
2023-02-12T07:38:56.435Z,36.92
2023-02-12T07:39:56.123Z,36.94
2023-02-12T07:40:56.163Z,36.96
2023-02-12T07:41:56.200Z,36.96
2023-02-12T07:42:56.303Z,36.99
2023-02-12T07:43:56.274Z,36.97
2023-02-12T07:44:56.329Z,36.94
2023-02-12T07:45:56.654Z,36.94
2023-02-12T07:46:56.391Z,37.03
2023-02-12T07:47:57.406Z,36.96
2023-02-12T07:48:56.462Z,36.97
2023-02-12T07:49:56.528Z,37.03
2023-02-12T07:50:56.550Z,36.97
2023-02-12T07:51:56.573Z,36.97
2023-02-12T07:52:56.629Z,36.96
2023-02-12T07:53:56.673Z,37.00
2023-02-12T07:54:56.728Z,36.92
2023-02-12T07:55:57.115Z,36.88
2023-02-12T07:56:57.407Z,36.91
2023-02-12T07:57:56.846Z,36.91
2023-02-12T07:58:56.886Z,36.91
2023-02-12T07:59:56.939Z,36.93
2023-02-12T08:00:56.969Z,36.88
2023-02-12T08:01:57.044Z,36.91
2023-02-12T08:02:57.058Z,36.96
2023-02-12T08:03:57.117Z,36.92
2023-02-12T08:04:57.142Z,36.93
2023-02-12T08:05:57.599Z,36.93
2023-02-12T08:06:57.202Z,36.96
2023-02-12T08:07:57.228Z,36.90
2023-02-12T08:08:57.266Z,36.93
2023-02-12T08:09:57.333Z,36.87
2023-02-12T08:10:57.340Z,36.90
2023-02-12T08:11:57.912Z,36.97
2023-02-12T08:12:57.422Z,36.90
2023-02-12T08:13:57.462Z,36.97
2023-02-12T08:14:57.498Z,36.91
2023-02-12T08:15:57.981Z,36.92
2023-02-12T08:16:57.627Z,36.93
2023-02-12T08:17:57.633Z,36.88
2023-02-12T08:19:04.604Z,36.88
2023-02-12T08:19:58.679Z,36.82
2023-02-12T08:20:57.629Z,36.82
2023-02-12T08:21:57.623Z,36.85
2023-02-12T08:22:57.594Z,36.87
2023-02-12T08:23:57.583Z,36.86
2023-02-12T08:24:57.575Z,36.87
2023-02-12T08:25:57.794Z,36.88
2023-02-12T08:26:57.584Z,36.85
2023-02-12T08:27:57.692Z,36.93
2023-02-12T08:28:57.655Z,36.83
2023-02-12T08:29:57.695Z,36.82
2023-02-12T08:30:57.776Z,36.83
2023-02-12T08:31:57.882Z,36.81
2023-02-12T08:32:57.800Z,36.85
2023-02-12T08:33:57.867Z,36.80
2023-02-12T08:34:57.879Z,36.85
2023-02-12T08:35:59.980Z,36.81
2023-02-12T08:36:57.938Z,36.82
2023-02-12T08:37:57.982Z,36.82
2023-02-12T08:38:58.014Z,36.83
2023-02-12T08:39:58.061Z,36.76
2023-02-12T08:40:59.041Z,36.77
2023-02-12T08:41:58.122Z,36.85
2023-02-12T08:42:58.163Z,36.85
2023-02-12T08:43:58.924Z,36.83
2023-02-12T08:44:58.236Z,36.90
2023-02-12T08:45:58.753Z,36.83
2023-02-12T08:46:58.305Z,36.87
2023-02-12T08:47:58.353Z,36.83
2023-02-12T08:48:58.394Z,36.87
2023-02-12T08:49:58.429Z,36.81
2023-02-12T08:50:58.460Z,36.86
2023-02-12T08:51:58.505Z,36.86
2023-02-12T08:52:58.548Z,36.92
2023-02-12T08:53:58.602Z,36.88
2023-02-12T08:54:58.632Z,36.85
2023-02-12T08:55:58.668Z,36.87
2023-02-12T08:56:58.710Z,36.85
2023-02-12T08:57:58.746Z,36.87
2023-02-12T08:58:58.787Z,36.86
2023-02-12T08:59:58.816Z,36.86
2023-02-12T09:00:58.878Z,36.83
2023-02-12T09:01:58.894Z,36.83
2023-02-12T09:02:59.938Z,36.75
2023-02-12T09:03:58.978Z,36.81
2023-02-12T09:04:59.014Z,36.76
2023-02-12T09:05:59.050Z,36.77
2023-02-12T09:06:59.094Z,36.80
2023-02-12T09:07:59.129Z,36.78
2023-02-12T09:08:59.222Z,36.77
2023-02-12T09:09:59.215Z,36.77
2023-02-12T09:10:59.254Z,36.77
2023-02-12T09:11:59.299Z,36.78
2023-02-12T09:12:59.334Z,36.80
2023-02-12T09:13:59.377Z,36.78
2023-02-12T09:14:59.409Z,36.77
2023-02-12T09:15:59.748Z,36.80
2023-02-12T09:16:59.617Z,36.75
2023-02-12T09:17:59.518Z,36.81
2023-02-12T11:57:05.164Z,36.90
2023-02-12T11:58:05.196Z,36.85
2023-02-12T11:59:05.228Z,36.90
2023-02-12T12:00:05.314Z,36.87
2023-02-12T12:01:05.325Z,36.81
2023-02-12T12:02:05.379Z,36.87
2023-02-12T12:03:05.371Z,36.86
2023-02-12T12:04:05.408Z,36.86
2023-02-12T12:05:05.380Z,36.82
2023-02-12T12:06:05.411Z,36.75
2023-02-12T12:07:05.449Z,36.80
2023-02-12T12:08:05.463Z,36.82
2023-02-12T12:09:05.502Z,36.84
2023-02-12T12:10:05.522Z,36.85
2023-02-12T12:11:05.542Z,36.82
2023-02-12T12:20:05.809Z,36.91
2023-02-12T12:21:05.871Z,36.81
2023-02-12T12:22:05.892Z,36.82
2023-02-12T12:23:05.895Z,36.89
2023-02-12T12:24:05.928Z,36.82
2023-02-12T12:26:06.035Z,36.81
2023-02-12T12:27:06.011Z,36.89
2023-02-12T12:28:06.109Z,36.88
2023-02-12T12:29:06.067Z,36.83
2023-02-12T12:30:06.095Z,36.82
2023-02-12T12:31:06.167Z,36.82
2023-02-12T12:32:06.180Z,36.82
2023-02-12T12:33:06.179Z,36.78
2023-02-12T12:34:06.201Z,36.84
2023-02-12T12:35:06.217Z,36.82
2023-02-12T12:36:06.241Z,36.75
2023-02-12T12:37:06.268Z,36.78
2023-02-12T12:38:06.294Z,36.79
2023-02-12T12:39:06.483Z,36.79
2023-02-12T12:40:06.341Z,36.76
2023-02-12T12:41:06.366Z,36.79
2023-02-12T12:42:06.392Z,36.78
2023-02-12T12:43:06.417Z,36.76
2023-02-12T12:44:06.456Z,36.80
2023-02-12T12:45:06.489Z,36.79
2023-02-12T12:46:06.526Z,36.72
2023-02-12T12:47:06.526Z,36.72
2023-02-12T12:48:06.550Z,36.77
2023-02-12T12:49:06.556Z,36.70
2023-02-12T12:50:06.599Z,36.71
2023-02-12T12:51:06.629Z,36.69
2023-02-12T12:52:06.646Z,36.71
2023-02-12T12:53:06.678Z,36.71
2023-02-12T12:54:06.769Z,36.74
2023-02-12T12:55:06.771Z,36.75
2023-02-12T12:56:06.743Z,36.75
2023-02-12T12:57:06.776Z,36.74
2023-02-12T12:58:06.807Z,36.79
2023-02-12T12:59:06.845Z,36.75
2023-02-12T13:00:06.891Z,36.71
2023-02-12T13:01:06.957Z,36.71
2023-02-12T13:02:06.950Z,36.71
2023-02-12T13:03:06.951Z,36.75
2023-02-12T13:04:06.979Z,36.72
2023-02-12T13:05:07.984Z,36.69
2023-02-12T13:06:07.042Z,36.71
2023-02-12T13:07:07.072Z,36.71
2023-02-12T13:08:07.111Z,36.70
2023-02-12T13:09:07.137Z,36.74
2023-02-12T13:10:07.165Z,36.74
2023-02-12T15:31:10.316Z,36.12
2023-02-12T15:49:10.580Z,36.03
2023-02-12T15:50:10.665Z,36.06
2023-02-12T15:51:10.605Z,36.10
2023-02-12T15:52:10.619Z,36.07
2023-02-12T15:53:10.619Z,36.13
2023-02-12T15:54:10.637Z,36.12
2023-02-12T15:55:11.023Z,36.07
2023-02-12T15:56:10.682Z,36.11
2023-02-12T15:57:10.685Z,36.07
2023-02-12T15:58:10.685Z,36.12
2023-02-12T15:59:10.694Z,36.04
2023-02-12T16:00:10.700Z,36.05
2023-02-12T16:01:10.692Z,36.06
2023-02-12T16:02:10.702Z,36.03
2023-02-12T16:03:10.705Z,36.07
2023-02-12T16:04:10.861Z,36.07
2023-02-12T16:05:10.714Z,36.08
2023-02-12T16:06:10.742Z,36.06
2023-02-12T16:07:10.747Z,36.06
2023-02-12T16:08:10.824Z,36.07
2023-02-12T16:09:10.831Z,36.11
2023-02-12T16:10:10.771Z,36.07
2023-02-12T16:11:10.774Z,36.05
2023-02-12T16:12:10.771Z,36.05
2023-02-12T16:13:10.789Z,36.06
2023-02-12T16:14:10.779Z,36.07
2023-02-12T16:15:10.805Z,36.00
2023-02-12T16:16:10.893Z,36.09
2023-02-12T16:17:10.854Z,36.04
2023-02-12T16:18:10.843Z,36.06
2023-02-12T16:19:10.860Z,36.06
2023-02-12T16:20:10.848Z,36.04
2023-02-12T16:21:10.858Z,36.01
2023-02-12T16:22:10.875Z,36.05
2023-02-12T16:23:10.877Z,36.03
2023-02-12T16:24:10.930Z,36.02
2023-02-12T16:25:10.896Z,36.10
2023-02-12T16:26:10.905Z,36.04
2023-02-12T16:27:10.916Z,36.06
2023-02-12T16:28:10.966Z,36.01
2023-02-12T16:29:10.917Z,35.99
2023-02-12T16:30:10.938Z,35.95
2023-02-12T16:31:10.972Z,35.98
2023-02-12T16:32:11.016Z,36.00
2023-02-12T16:33:11.037Z,36.05
2023-02-12T16:34:11.529Z,36.05
2023-02-12T16:35:10.976Z,36.09
2023-02-12T16:36:10.992Z,36.02
2023-02-12T16:37:10.988Z,35.95
2023-02-12T16:38:11.012Z,35.98
2023-02-12T16:39:11.014Z,35.94
2023-02-12T16:40:11.539Z,35.94
2023-02-12T16:41:11.032Z,35.91
2023-02-12T16:42:11.041Z,35.90
2023-02-12T16:43:11.058Z,35.92
2023-02-12T16:44:11.090Z,35.94
2023-02-12T16:45:11.110Z,35.91
2023-02-12T16:46:11.137Z,35.91
2023-02-12T16:47:11.193Z,35.94
2023-02-12T16:48:11.095Z,35.94
2023-02-12T16:49:11.104Z,35.93
2023-02-12T16:50:11.107Z,35.93
2023-02-12T16:51:11.121Z,35.94
2023-02-12T16:52:11.122Z,35.97
2023-02-12T16:53:11.129Z,35.99
2023-02-12T16:54:11.140Z,35.98
2023-02-12T16:55:11.142Z,35.95
2023-02-12T16:56:11.152Z,35.99
2023-02-12T16:57:11.206Z,36.00
2023-02-12T16:58:11.180Z,35.95
2023-02-12T16:59:11.180Z,35.93
2023-02-12T17:00:11.207Z,35.90
2023-02-12T17:01:11.304Z,35.92
2023-02-12T17:02:11.213Z,35.88
2023-02-12T17:03:11.237Z,35.88
2023-02-12T21:38:15.171Z,35.19
2023-02-12T21:39:15.198Z,35.25
2023-02-12T21:40:15.214Z,35.24
2023-02-12T22:12:16.054Z,35.29
2023-02-12T22:13:16.087Z,35.28
2023-02-12T22:18:16.231Z,35.28
2023-02-12T22:23:16.363Z,35.30
2023-02-12T22:25:16.429Z,35.29
2023-02-12T22:26:16.476Z,35.29
